Time;durP1;ratioP1;P1;durP2;ratioP2;P2;SDS_P1;SDS_P2;PMS_P1;PMS_P2;Temp;Humidity;BMP_temperature;BMP_pressure;BME280_temperature;BME280_humidity;BME280_pressure;Samples;Min_cycle;Max_cycle;Signal;HPM_P1;HPM_P2
2022/09/16 00:02:24;;;;;;;6.90;3.10;;;;;;;21.15;61.30;96429.16;4970877;28;20186;-78
2022/09/16 00:04:53;;;;;;;8.07;3.37;;;;;;;21.08;61.57;96422.84;4954327;28;20207;-77
2022/09/16 00:07:20;;;;;;;6.73;3.63;;;;;;;21.21;60.78;96418.03;4953558;28;20194;-76
2022/09/16 00:09:47;;;;;;;5.83;3.07;;;;;;;21.27;60.81;96422.72;4971110;28;20230;-76
2022/09/16 00:12:14;;;;;;;8.37;3.93;;;;;;;21.26;60.83;96423.69;4953475;28;20252;-76
2022/09/16 00:14:41;;;;;;;9.03;4.13;;;;;;;21.25;60.83;96422.84;4970526;28;20193;-77
2022/09/16 00:17:08;;;;;;;7.90;4.47;;;;;;;21.42;60.59;96419.41;4953736;28;20198;-75
2022/09/16 00:19:35;;;;;;;6.83;4.20;;;;;;;21.50;60.25;96410.72;4970149;28;20185;-78
2022/09/16 00:22:02;;;;;;;12.97;4.60;;;;;;;21.42;60.23;96411.50;4970958;28;20653;-76
2022/09/16 00:24:29;;;;;;;9.27;4.70;;;;;;;21.53;60.31;96405.16;4970120;28;20316;-76
2022/09/16 00:26:56;;;;;;;10.80;4.40;;;;;;;21.41;60.22;96406.38;4971236;28;20204;-77
2022/09/16 00:29:23;;;;;;;10.97;5.00;;;;;;;21.61;60.15;96407.84;4974472;28;20189;-80
2022/09/16 00:31:50;;;;;;;9.07;4.60;;;;;;;21.46;60.50;96414.63;4979469;28;20210;-78
2022/09/16 00:34:17;;;;;;;7.53;4.63;;;;;;;21.35;61.09;96418.31;4974768;28;20193;-80
2022/09/16 00:36:44;;;;;;;12.47;4.97;;;;;;;21.51;60.56;96410.59;4973433;28;20189;-80
2022/09/16 00:39:10;;;;;;;14.53;5.43;;;;;;;21.17;59.91;96335.88;4973067;28;20198;-80
2022/09/16 00:41:37;;;;;;;10.33;4.50;;;;;;;21.63;59.70;96411.16;4970288;28;20193;-80
2022/09/16 00:44:25;;;;;;;7.80;4.23;;;;;;;21.52;60.24;96419.28;4971443;28;20197;-80
2022/09/16 00:46:53;;;;;;;11.33;4.67;;;;;;;21.30;60.59;96430.31;4969420;28;20204;-80
2022/09/16 00:49:26;;;;;;;10.17;4.10;;;;;;;20.90;61.43;96402.56;4969581;28;20195;-81
2022/09/16 00:51:58;;;;;;;11.33;4.00;;;;;;;20.79;61.77;96426.44;4971031;28;20221;-78
2022/09/16 00:54:27;;;;;;;10.90;4.57;;;;;;;20.71;62.03;96421.09;4952420;28;20673;-78
2022/09/16 00:56:57;;;;;;;9.23;3.90;;;;;;;20.63;62.35;96410.47;4970666;28;20269;-76
2022/09/16 00:59:30;;;;;;;8.83;3.70;;;;;;;20.47;62.94;96402.41;4970021;28;20193;-77
2022/09/16 01:02:02;;;;;;;11.50;4.00;;;;;;;20.51;63.26;96419.56;4970461;28;20189;-75
2022/09/16 01:04:32;;;;;;;11.17;3.97;;;;;;;20.39;63.41;96423.34;4952739;28;20196;-80
2022/09/16 01:07:00;;;;;;;8.77;3.97;;;;;;;20.52;63.07;96423.84;4969728;28;20227;-77
2022/09/16 01:09:29;;;;;;;6.23;3.40;;;;;;;20.57;62.73;96410.22;4970667;28;20571;-76
2022/09/16 01:11:56;;;;;;;7.50;3.60;;;;;;;20.51;62.80;96431.88;4951913;28;20220;-77
2022/09/16 01:17:22;;;;;;;10.80;4.63;;;;;;;20.18;63.34;96415.66;4969789;28;20634;-80
2022/09/16 01:19:55;;;;;;;11.60;4.23;;;;;;;20.30;63.49;96424.22;4969624;28;20180;-77
2022/09/16 01:22:52;;;;;;;5.83;3.93;;;;;;;20.49;62.92;96429.38;4970211;28;20185;-80
2022/09/16 01:26:14;;;;;;;11.13;4.57;;;;;;;20.70;62.17;96437.88;4938049;29;20269;-78
2022/09/16 01:28:53;;;;;;;9.43;3.60;;;;;;;20.73;62.16;96431.50;4931309;29;20206;-79
2022/09/16 01:31:44;;;;;;;12.57;4.50;;;;;;;20.69;62.39;96428.31;4932298;29;20186;-80
2022/09/16 01:34:36;;;;;;;7.47;3.70;;;;;;;20.69;62.34;96428.31;4931674;29;20226;-79
2022/09/16 01:37:15;;;;;;;7.67;4.23;;;;;;;20.70;61.88;96432.63;4931507;29;20194;-81
2022/09/16 01:40:07;;;;;;;9.87;3.70;;;;;;;20.78;61.93;96437.13;4931949;29;20198;-80
2022/09/16 01:42:41;;;;;;;11.17;3.40;;;;;;;20.68;61.83;96434.56;4931098;29;20658;-81
2022/09/16 01:45:31;;;;;;;8.43;4.27;;;;;;;20.65;62.17;96432.22;4931662;29;20762;-81
2022/09/16 01:48:16;;;;;;;8.37;3.40;;;;;;;20.36;62.96;96438.59;4931273;29;20281;-80
2022/09/16 01:51:02;;;;;;;8.00;3.80;;;;;;;20.25;63.22;96432.56;4930824;29;20277;-79
2022/09/16 01:53:57;;;;;;;8.33;4.33;;;;;;;20.17;63.40;96439.47;4931189;29;20249;-80
2022/09/16 01:56:59;;;;;;;9.17;4.10;;;;;;;19.94;64.03;96435.50;4927169;29;20206;-79
2022/09/16 01:59:45;;;;;;;11.33;4.40;;;;;;;20.12;64.62;96428.53;4930131;29;20185;-79
2022/09/16 02:02:18;;;;;;;10.33;4.60;;;;;;;20.36;63.38;96438.59;4931777;29;20199;-79
2022/09/16 02:04:50;;;;;;;8.23;4.50;;;;;;;20.60;62.31;96445.00;4930688;29;20190;-79
2022/09/16 02:07:22;;;;;;;8.90;4.57;;;;;;;20.63;62.35;96441.25;4930523;29;20190;-78
2022/09/16 02:09:57;;;;;;;13.80;4.50;;;;;;;20.56;62.34;96429.63;4931109;29;20290;-79
2022/09/16 02:12:28;;;;;;;9.33;4.30;;;;;;;20.52;62.29;96431.75;4930149;29;20193;-80
2022/09/16 02:15:01;;;;;;;7.83;4.00;;;;;;;20.45;62.65;96429.81;4931160;29;20254;-80
2022/09/16 02:17:32;;;;;;;8.43;3.60;;;;;;;20.65;62.09;96434.84;4930287;29;20197;-79
2022/09/16 02:20:13;;;;;;;7.17;3.57;;;;;;;20.72;61.79;96438.56;4930497;29;20607;-79
2022/09/16 02:22:43;;;;;;;5.30;3.77;;;;;;;20.74;61.62;96433.97;4930508;29;20190;-80
2022/09/16 02:25:13;;;;;;;7.83;3.97;;;;;;;20.48;62.32;96438.28;4948928;28;20224;-80
2022/09/16 02:27:42;;;;;;;12.37;4.27;;;;;;;20.14;62.96;96430.06;4970944;28;20657;-80
2022/09/16 02:30:15;;;;;;;7.73;4.47;;;;;;;20.11;63.55;96440.03;4968736;28;20189;-81
2022/09/16 02:32:47;;;;;;;9.97;4.33;;;;;;;20.05;63.87;96441.41;4969368;28;20231;-80
2022/09/16 02:35:19;;;;;;;9.73;4.57;;;;;;;19.98;64.05;96424.56;4968794;28;20203;-79
2022/09/16 02:38:05;;;;;;;6.57;3.83;;;;;;;20.17;63.39;96434.22;4968743;28;20201;-80
2022/09/16 02:40:43;;;;;;;11.53;4.37;;;;;;;20.33;62.92;96438.88;4968935;28;20203;-79
2022/09/16 02:43:10;;;;;;;11.67;4.83;;;;;;;20.39;62.94;96449.66;4968900;28;20657;-79
2022/09/16 02:45:44;;;;;;;10.13;4.53;;;;;;;20.44;62.70;96452.69;4969018;28;20282;-78
2022/09/16 02:48:37;;;;;;;9.60;4.50;;;;;;;20.40;62.52;96443.44;4968551;28;20690;-80
2022/09/16 02:51:22;;;;;;;9.97;4.53;;;;;;;20.65;62.08;96450.63;4968562;28;20310;-83
2022/09/16 02:53:53;;;;;;;7.93;4.17;;;;;;;20.68;61.68;96450.34;4968794;28;20878;-77
2022/09/16 02:56:47;;;;;;;9.10;4.10;;;;;;;20.89;60.95;96448.31;4967949;28;20227;-80
2022/09/16 02:59:16;;;;;;;9.37;4.20;;;;;;;20.73;61.54;96445.47;4963997;28;20303;-81
2022/09/16 03:01:44;;;;;;;5.90;3.70;;;;;;;20.81;61.43;96450.00;4968481;28;20227;-80
2022/09/16 03:04:14;;;;;;;12.17;4.23;;;;;;;20.89;61.21;96452.75;4967980;28;20280;-78
2022/09/16 03:06:41;;;;;;;8.07;3.90;;;;;;;20.99;60.74;96445.59;4968615;28;20188;-81
2022/09/16 03:09:13;;;;;;;12.53;4.33;;;;;;;20.77;61.20;96443.38;4967345;28;20279;-81
2022/09/16 03:11:52;;;;;;;9.33;4.00;;;;;;;20.63;61.70;96441.25;4968439;28;20202;-80
2022/09/16 03:14:51;;;;;;;9.77;4.30;;;;;;;20.58;61.76;96433.78;4950934;28;20307;-81
2022/09/16 03:17:29;;;;;;;13.10;4.50;;;;;;;20.62;61.62;96434.31;4967781;28;20251;-81
2022/09/16 03:20:27;;;;;;;8.57;4.03;;;;;;;20.63;61.28;96421.00;4968538;28;20224;-80
2022/09/16 03:23:00;;;;;;;10.90;4.17;;;;;;;20.76;61.40;96426.75;4968049;28;20193;-79
2022/09/16 03:25:58;;;;;;;5.50;4.20;;;;;;;20.75;61.36;96427.72;4967767;28;20232;-78
2022/09/16 03:28:27;;;;;;;12.43;4.07;;;;;;;20.78;61.25;96432.72;4970764;28;20244;-77
2022/09/16 03:31:04;;;;;;;10.33;4.37;;;;;;;20.76;61.65;96436.47;4967515;28;20295;-79
2022/09/16 03:33:42;;;;;;;13.63;4.57;;;;;;;20.95;61.09;96441.63;4968589;28;20216;-80
2022/09/16 03:36:13;;;;;;;12.47;4.23;;;;;;;20.89;60.89;96432.50;4968039;28;20185;-79
2022/09/16 03:38:42;;;;;;;10.53;4.73;;;;;;;20.87;61.37;96417.84;4925178;29;20209;-80
2022/09/16 03:41:10;;;;;;;13.13;4.73;;;;;;;20.87;61.84;96434.47;4930112;29;20190;-79
2022/09/16 03:43:37;;;;;;;13.07;4.77;;;;;;;20.94;61.32;96424.97;4895936;29;20223;-79
2022/09/16 03:46:09;;;;;;;8.80;4.60;;;;;;;20.85;62.15;96404.84;4933476;29;20198;-80
2022/09/16 03:48:36;;;;;;;7.57;4.20;;;;;;;20.92;61.78;96420.84;4939868;29;20268;-81
2022/09/16 03:51:04;;;;;;;12.27;4.77;;;;;;;20.74;62.25;96410.28;4949076;29;20673;-81
2022/09/16 03:53:31;;;;;;;11.87;4.00;;;;;;;20.62;62.71;96395.69;4952922;29;20740;-78
2022/09/16 03:55:57;;;;;;;8.27;4.40;;;;;;;20.67;62.67;96408.41;4948273;29;20678;-80
2022/09/16 03:58:24;;;;;;;10.37;4.67;;;;;;;20.56;62.71;96409.44;4938217;29;20293;-78
2022/09/16 04:00:54;;;;;;;30.47;7.23;;;;;;;20.46;63.12;96387.63;4939606;29;21194;-81
2022/09/16 04:03:21;;;;;;;15.50;6.30;;;;;;;20.51;63.30;96393.25;4937033;29;20284;-78
2022/09/16 04:05:54;;;;;;;14.10;5.13;;;;;;;20.74;63.01;96422.63;4938705;29;20666;-77
2022/09/16 04:08:22;;;;;;;11.40;4.77;;;;;;;20.71;63.07;96430.81;4938220;29;20195;-75
2022/09/16 04:10:56;;;;;;;11.83;5.53;;;;;;;20.39;63.31;96428.59;4937370;29;20194;-79
2022/09/16 04:13:34;;;;;;;11.87;5.37;;;;;;;20.20;64.45;96426.03;4939514;29;20229;-77
2022/09/16 04:16:03;;;;;;;10.33;5.20;;;;;;;20.13;65.03;96422.31;4920644;29;20209;-78
2022/09/16 04:18:32;;;;;;;14.13;5.67;;;;;;;20.26;64.59;96415.78;4928928;29;20202;-75
2022/09/16 04:21:03;;;;;;;11.13;5.50;;;;;;;20.49;64.05;96421.50;4912856;29;20190;-76
2022/09/16 04:23:30;;;;;;;14.10;5.87;;;;;;;20.58;63.33;96419.81;4914925;29;20228;-78
2022/09/16 04:25:59;;;;;;;57.73;14.30;;;;;;;20.81;63.20;96429.75;4932780;29;20227;-78
2022/09/16 04:28:27;;;;;;;23.10;7.10;;;;;;;20.97;62.78;96444.94;4934196;29;20250;-78
2022/09/16 04:30:58;;;;;;;14.13;6.13;;;;;;;20.93;62.33;96439.13;4915345;29;20222;-77
2022/09/16 04:33:28;;;;;;;13.70;6.13;;;;;;;21.05;61.56;96447.69;4933067;29;20219;-76
2022/09/16 04:36:07;;;;;;;13.17;6.47;;;;;;;21.08;61.52;96448.19;4934140;29;20796;-77
2022/09/16 04:38:36;;;;;;;11.67;5.60;;;;;;;21.21;61.63;96445.19;4919554;29;20202;-77
2022/09/16 04:41:05;;;;;;;12.00;5.93;;;;;;;21.23;61.13;96440.63;4944007;29;20190;-78
2022/09/16 04:43:34;;;;;;;10.57;6.07;;;;;;;21.11;61.23;96414.63;4938887;29;20194;-77
2022/09/16 04:46:01;;;;;;;13.73;5.97;;;;;;;21.08;61.84;96441.28;4939120;29;20717;-78
2022/09/16 04:48:29;;;;;;;18.80;6.37;;;;;;;21.33;61.35;96444.00;4936193;29;20651;-77
2022/09/16 04:51:10;;;;;;;15.30;6.23;;;;;;;21.45;60.16;96450.69;4920373;29;20698;-79
2022/09/16 04:53:39;;;;;;;10.70;5.17;;;;;;;21.24;60.42;96430.91;4936836;29;20567;-79
2022/09/16 04:56:14;;;;;;;9.27;5.73;;;;;;;21.35;60.45;96449.13;4936350;29;20954;-78
2022/09/16 04:58:43;;;;;;;15.07;5.70;;;;;;;21.31;60.69;96442.50;4936193;29;20198;-79
2022/09/16 05:01:13;;;;;;;16.23;5.90;;;;;;;21.22;61.19;96438.13;4937560;29;20656;-79
2022/09/16 05:03:46;;;;;;;20.77;6.40;;;;;;;21.43;61.44;96441.31;4920734;29;20190;-79
2022/09/16 05:06:33;;;;;;;14.57;6.93;;;;;;;21.50;60.45;96450.25;4935381;29;20258;-78
2022/09/16 05:09:01;;;;;;;11.30;6.10;;;;;;;21.13;61.58;96439.03;4935628;29;20194;-79
2022/09/16 05:11:30;;;;;;;18.20;6.83;;;;;;;21.24;61.51;96442.28;4936509;29;20341;-78
2022/09/16 05:13:58;;;;;;;8.07;4.23;;;;;;;21.50;59.69;96442.34;4935582;29;20222;-78
2022/09/16 05:16:26;;;;;;;15.07;4.97;;;;;;;21.63;59.57;96455.97;4936665;29;20199;-79
2022/09/16 05:18:58;;;;;;;11.40;4.90;;;;;;;21.79;59.19;96437.63;4937489;29;20194;-79
2022/09/16 05:21:27;;;;;;;13.80;4.50;;;;;;;21.90;59.24;96450.63;4920001;29;20200;-78
2022/09/16 05:23:58;;;;;;;13.50;5.23;;;;;;;21.85;59.52;96443.16;4943947;29;20261;-79
2022/09/16 05:26:28;;;;;;;11.93;4.80;;;;;;;21.90;59.03;96440.06;4946648;29;20199;-79
2022/09/16 05:28:55;;;;;;;15.77;5.20;;;;;;;21.86;59.86;96436.91;4918970;29;20195;-78
2022/09/16 05:31:25;;;;;;;17.97;4.90;;;;;;;21.84;59.62;96432.78;4935969;29;20616;-79
2022/09/16 05:33:56;;;;;;;10.27;5.13;;;;;;;21.90;60.07;96437.44;4943509;29;20237;-80
2022/09/16 05:36:38;;;;;;;11.87;4.43;;;;;;;22.00;60.15;96435.53;4916634;29;20620;-81
2022/09/16 05:39:11;;;;;;;9.87;4.47;;;;;;;22.01;60.23;96437.16;4932891;29;20218;-81
2022/09/16 05:42:22;;;;;;;13.67;4.80;;;;;;;21.48;61.33;96412.69;4934738;29;20239;-80
2022/09/16 05:44:49;;;;;;;9.97;4.70;;;;;;;21.46;61.47;96438.34;4923032;29;20244;-78
2022/09/16 05:47:26;;;;;;;19.03;4.30;;;;;;;21.43;61.67;96426.31;4940291;29;20534;-78
2022/09/16 05:49:53;;;;;;;10.17;4.53;;;;;;;21.50;61.41;96422.09;4942688;29;20183;-79
2022/09/16 05:52:20;;;;;;;10.53;4.50;;;;;;;21.55;61.53;96419.00;4943084;29;20280;-79
2022/09/16 05:54:49;;;;;;;11.73;4.73;;;;;;;21.76;61.41;96425.59;4944082;29;20230;-79
2022/09/16 05:57:23;;;;;;;13.27;4.87;;;;;;;22.02;60.35;96423.00;4910082;29;20263;-81
2022/09/16 05:59:50;;;;;;;13.37;5.07;;;;;;;22.18;60.09;96420.47;4940060;29;20195;-79
2022/09/16 06:02:17;;;;;;;15.13;5.27;;;;;;;22.48;59.17;96425.22;4928480;29;20779;-79
2022/09/16 06:04:44;;;;;;;14.13;5.50;;;;;;;22.55;59.15;96415.69;4928032;29;20263;-79
2022/09/16 06:07:12;;;;;;;12.67;5.47;;;;;;;22.81;58.61;96420.13;4925880;29;20204;-78
2022/09/16 06:09:39;;;;;;;16.33;5.63;;;;;;;23.01;57.25;96411.75;4925178;29;20192;-80
2022/09/16 06:12:06;;;;;;;15.87;5.83;;;;;;;23.34;56.25;96421.44;4940626;29;20668;-77
2022/09/16 06:14:33;;;;;;;11.17;4.03;;;;;;;23.34;54.24;96415.31;4942031;29;20232;-79
2022/09/16 06:17:00;;;;;;;8.33;4.50;;;;;;;23.63;54.15;96412.19;4938350;29;20228;-79
2022/09/16 06:19:27;;;;;;;19.93;7.33;;;;;;;23.99;52.08;96405.53;4940495;29;20253;-78
2022/09/16 06:21:54;;;;;;;27.80;9.10;;;;;;;24.27;51.81;96395.41;4939659;29;20201;-79
2022/09/16 06:24:21;;;;;;;24.53;10.63;;;;;;;24.68;51.47;96392.44;4938769;29;20302;-79
2022/09/16 06:26:50;;;;;;;16.90;6.97;;;;;;;24.95;50.32;96397.31;4942352;29;20263;-78
2022/09/16 06:29:26;;;;;;;13.37;5.10;;;;;;;25.39;50.21;96409.97;4927223;29;20258;-79
2022/09/16 06:32:44;;;;;;;17.70;6.17;;;;;;;25.75;49.32;96411.84;4934132;29;20283;-80
2022/09/16 06:35:47;;;;;;;20.53;6.57;;;;;;;25.95;48.80;96416.63;4930330;29;20216;-79
2022/09/16 06:38:15;;;;;;;14.30;5.37;;;;;;;26.09;48.36;96415.91;4918670;29;20259;-78
2022/09/16 06:40:42;;;;;;;15.20;5.40;;;;;;;26.23;47.47;96418.56;4917135;29;20713;-79
2022/09/16 06:43:09;;;;;;;15.47;5.70;;;;;;;26.46;46.95;96421.16;4916287;29;20285;-79
2022/09/16 06:45:36;;;;;;;14.53;5.90;;;;;;;26.54;47.88;96418.38;4935437;29;20190;-78
2022/09/16 06:48:04;;;;;;;15.20;6.70;;;;;;;26.72;46.32;96424.19;4919276;29;20272;-80
2022/09/16 06:50:31;;;;;;;14.17;5.73;;;;;;;26.82;45.81;96419.41;4941145;29;20194;-79
2022/09/16 06:52:58;;;;;;;20.13;6.93;;;;;;;27.04;45.82;96423.75;4935884;29;20288;-79
2022/09/16 06:55:25;;;;;;;16.90;6.63;;;;;;;27.33;45.09;96418.34;4936763;29;20241;-80
2022/09/16 06:57:55;;;;;;;18.93;6.83;;;;;;;27.45;44.26;96413.38;4937329;29;20264;-80
2022/09/16 07:00:24;;;;;;;18.57;6.80;;;;;;;27.49;44.65;96413.84;4939063;29;20293;-79
2022/09/16 07:02:51;;;;;;;19.40;6.17;;;;;;;27.53;44.55;96421.25;4935823;29;20205;-79
2022/09/16 07:05:18;;;;;;;21.93;6.23;;;;;;;27.67;44.31;96411.56;4935270;29;20198;-80
2022/09/16 07:07:45;;;;;;;16.90;6.13;;;;;;;27.94;44.00;96419.59;4935058;29;20644;-79
2022/09/16 07:10:13;;;;;;;14.23;5.50;;;;;;;27.94;44.59;96416.91;4934562;29;20287;-79
2022/09/16 07:12:42;;;;;;;14.90;4.57;;;;;;;27.80;43.47;96395.72;4935735;29;20621;-79
2022/09/16 07:15:10;;;;;;;14.13;4.90;;;;;;;27.95;42.08;96413.22;4936587;29;20228;-79
2022/09/16 07:17:38;;;;;;;16.50;5.37;;;;;;;28.06;42.10;96401.25;4919484;29;20194;-79
2022/09/16 07:20:05;;;;;;;18.73;6.30;;;;;;;28.26;42.09;96407.53;4917715;29;20579;-78
2022/09/16 07:22:33;;;;;;;26.30;6.70;;;;;;;28.12;42.96;96389.81;4933238;29;20257;-79
2022/09/16 07:25:00;;;;;;;17.57;6.17;;;;;;;28.30;43.03;96421.28;4916743;29;20238;-80
2022/09/16 07:27:32;;;;;;;13.97;5.17;;;;;;;28.32;43.11;96416.59;4920377;29;20568;-78
2022/09/16 07:30:15;;;;;;;19.83;6.77;;;;;;;28.39;42.81;96418.28;4915917;29;20254;-76
2022/09/16 07:33:01;;;;;;;15.60;4.60;;;;;;;28.71;41.19;96416.84;4913466;29;20205;-80
2022/09/16 07:35:28;;;;;;;16.27;5.63;;;;;;;28.77;40.94;96406.22;4914197;29;20226;-81
2022/09/16 07:37:59;;;;;;;18.97;5.00;;;;;;;29.03;41.25;96416.19;4914601;29;20226;-81
2022/09/16 07:40:27;;;;;;;15.90;5.73;;;;;;;29.16;40.49;96404.78;4915511;29;20195;-80
2022/09/16 07:42:58;;;;;;;11.20;5.77;;;;;;;29.27;39.83;96413.00;4917620;29;20271;-81
2022/09/16 07:45:25;;;;;;;15.07;4.60;;;;;;;29.47;39.19;96424.53;4915930;29;20193;-80
2022/09/16 07:47:52;;;;;;;17.93;5.23;;;;;;;29.44;38.51;96400.94;4918026;29;20187;-80
2022/09/16 07:50:22;;;;;;;13.43;6.77;;;;;;;29.48;39.00;96385.34;4918083;29;20197;-81
2022/09/16 07:52:55;;;;;;;17.67;5.77;;;;;;;29.58;38.67;96412.44;4918867;29;20640;-79
2022/09/16 07:55:22;;;;;;;17.90;6.20;;;;;;;29.68;39.32;96415.53;4915141;29;20337;-77
2022/09/16 07:57:49;;;;;;;27.47;10.00;;;;;;;29.60;39.39;96410.41;4917211;29;20757;-78
2022/09/16 08:00:18;;;;;;;18.63;5.37;;;;;;;29.50;36.96;96370.78;4917454;29;20321;-79
2022/09/16 08:02:44;;;;;;;16.20;5.27;;;;;;;29.79;37.34;96401.63;4919285;29;20229;-78
2022/09/16 08:05:12;;;;;;;17.13;4.87;;;;;;;29.81;37.32;96386.22;4920166;29;20269;-76
2022/09/16 08:07:39;;;;;;;18.50;4.73;;;;;;;29.94;38.04;96410.25;4930248;29;20191;-78
2022/09/16 08:10:06;;;;;;;15.67;5.23;;;;;;;30.07;38.15;96409.44;4936371;29;20202;-78
2022/09/16 08:12:34;;;;;;;12.33;4.10;;;;;;;29.97;38.39;96407.16;4936761;29;20198;-78
2022/09/16 08:15:01;;;;;;;11.37;4.80;;;;;;;30.05;37.42;96398.13;4935922;29;20245;-79
2022/09/16 08:17:29;;;;;;;15.97;5.40;;;;;;;30.25;36.86;96398.94;4937619;29;20198;-77
2022/09/16 08:20:08;;;;;;;15.07;4.73;;;;;;;30.39;36.17;96389.91;4933071;29;20210;-78
2022/09/16 08:22:40;;;;;;;18.53;5.17;;;;;;;30.44;35.99;96398.09;4933414;29;20190;-78
2022/09/16 08:25:07;;;;;;;20.80;6.13;;;;;;;30.44;36.51;96390.91;4944207;29;20228;-78
2022/09/16 08:27:35;;;;;;;15.83;5.13;;;;;;;30.48;36.28;96391.28;4932300;29;20202;-79
2022/09/16 08:30:03;;;;;;;15.90;4.27;;;;;;;30.59;33.06;96381.81;4952602;29;20245;-78
2022/09/16 08:32:30;;;;;;;12.73;4.73;;;;;;;30.56;32.42;96374.22;4937059;29;20212;-78
2022/09/16 08:34:57;;;;;;;10.83;3.77;;;;;;;30.72;32.21;96382.59;4937408;29;20225;-79
2022/09/16 08:37:24;;;;;;;17.63;3.70;;;;;;;30.83;32.95;96379.25;4952924;29;20226;-77
2022/09/16 08:39:54;;;;;;;8.77;2.93;;;;;;;30.86;32.30;96388.75;4937577;29;20205;-78
2022/09/16 08:42:49;;;;;;;14.63;4.00;;;;;;;30.90;32.30;96387.28;4935551;29;20221;-80
2022/09/16 08:45:53;;;;;;;16.43;4.33;;;;;;;30.99;31.58;96386.03;4946001;29;20241;-78
2022/09/16 08:48:23;;;;;;;15.20;4.30;;;;;;;31.12;32.39;96385.94;4936098;29;20190;-80
2022/09/16 08:50:58;;;;;;;16.33;4.13;;;;;;;31.00;31.99;96377.78;4932350;29;20197;-79
2022/09/16 08:53:46;;;;;;;16.63;4.17;;;;;;;31.14;32.15;96381.22;4932999;29;20288;-80
2022/09/16 08:56:20;;;;;;;13.30;4.33;;;;;;;31.08;31.36;96371.34;4932802;29;20249;-81
2022/09/16 08:58:52;;;;;;;17.40;3.67;;;;;;;31.14;31.81;96367.84;4933358;29;20217;-80
2022/09/16 09:01:26;;;;;;;23.53;5.03;;;;;;;31.26;31.68;96368.81;4935434;29;20202;-79
2022/09/16 09:03:53;;;;;;;14.97;3.40;;;;;;;31.28;31.65;96369.41;4915810;29;20225;-79
2022/09/16 09:06:56;;;;;;;16.87;4.10;;;;;;;31.34;31.63;96371.22;4934875;29;20225;-81
2022/09/16 09:09:32;;;;;;;16.90;4.43;;;;;;;31.42;31.18;96362.13;4935779;29;20209;-79
2022/09/16 09:12:13;;;;;;;17.00;4.25;;;;;;;31.54;31.28;96360.41;4935208;29;20630;-80
2022/09/16 09:14:56;;;;;;;13.10;3.73;;;;;;;31.62;31.13;96349.41;4934368;29;20272;-78
2022/09/16 09:17:51;;;;;;;12.07;4.07;;;;;;;31.61;31.17;96331.72;4934814;29;20186;-78
2022/09/16 09:20:35;;;;;;;16.30;4.50;;;;;;;31.52;32.01;96335.69;4937749;29;20190;-81
2022/09/16 09:23:26;;;;;;;18.40;4.93;;;;;;;31.66;30.96;96340.75;4936968;29;20320;-79
2022/09/16 09:26:08;;;;;;;18.30;4.80;;;;;;;31.74;30.72;96337.78;4915544;29;20235;-80
2022/09/16 09:29:04;;;;;;;10.02;3.60;;;;;;;31.77;30.01;96347.25;4917149;29;20694;-78
2022/09/16 09:31:43;;;;;;;11.27;3.83;;;;;;;31.94;30.73;96346.50;4918144;29;20202;-78
2022/09/16 09:34:22;;;;;;;13.70;4.73;;;;;;;32.07;30.40;96345.56;4915016;29;20218;-81
2022/09/16 09:37:08;;;;;;;16.70;3.63;;;;;;;32.02;29.83;96337.38;4916138;29;20523;-78
2022/09/16 09:40:07;;;;;;;23.08;5.15;;;;;;;32.14;30.11;96340.13;4917601;29;20282;-79
2022/09/16 09:42:56;;;;;;;20.00;4.57;;;;;;;32.20;29.50;96329.34;4926488;29;20255;-79
2022/09/16 09:45:34;;;;;;;12.65;3.90;;;;;;;32.34;29.88;96316.63;4919686;29;20233;-80
2022/09/16 09:48:22;;;;;;;17.63;4.65;;;;;;;32.45;29.61;96322.06;4917106;29;20206;-79
2022/09/16 09:50:52;;;;;;;20.92;5.85;;;;;;;32.44;29.12;96312.38;4919846;29;20219;-78
2022/09/16 09:53:28;;;;;;;15.15;4.47;;;;;;;32.65;29.23;96308.44;4916023;29;20190;-81
2022/09/16 09:56:12;;;;;;;15.52;4.32;;;;;;;32.69;29.13;96304.28;4918804;29;20245;-80
2022/09/16 09:59:04;;;;;;;24.42;4.60;;;;;;;32.75;29.41;96317.59;4924236;29;20225;-79
2022/09/16 10:01:37;;;;;;;15.90;3.92;;;;;;;32.73;29.09;96310.81;4913724;29;20213;-78
2022/09/16 10:04:14;;;;;;;14.18;3.75;;;;;;;32.75;28.99;96316.78;4915826;29;20238;-78
2022/09/16 10:06:44;;;;;;;16.90;4.43;;;;;;;32.86;28.25;96303.44;4923698;29;20232;-79
2022/09/16 10:09:14;;;;;;;15.27;3.67;;;;;;;32.87;28.24;96288.97;4918738;29;20298;-80
2022/09/16 10:11:56;;;;;;;14.60;4.03;;;;;;;32.90;28.35;96309.16;4916558;29;20667;-79
2022/09/16 10:14:33;;;;;;;22.23;3.97;;;;;;;32.77;28.59;96312.00;4916414;29;20190;-80
2022/09/16 10:17:02;;;;;;;13.73;4.50;;;;;;;32.69;29.36;96313.16;4918565;29;20190;-78
2022/09/16 10:19:59;;;;;;;15.07;4.60;;;;;;;32.68;28.84;96310.69;4900714;29;20187;-81
2022/09/16 10:22:29;;;;;;;17.27;4.07;;;;;;;32.72;28.42;96319.94;4917818;29;20204;-79
2022/09/16 10:25:23;;;;;;;16.13;3.97;;;;;;;32.80;28.60;96330.34;4929906;29;20257;-81
2022/09/16 10:27:57;;;;;;;15.55;4.45;;;;;;;32.90;28.38;96322.56;4938000;29;20198;-77
2022/09/16 10:30:26;;;;;;;18.25;3.75;;;;;;;32.99;28.45;96323.13;4936774;29;20200;-79
2022/09/16 10:33:11;;;;;;;19.48;4.18;;;;;;;32.91;28.45;96318.84;4920004;29;20285;-79
2022/09/16 10:35:40;;;;;;;15.07;4.10;;;;;;;32.92;28.93;96316.97;4936253;29;20245;-77
2022/09/16 10:38:08;;;;;;;13.55;3.90;;;;;;;32.77;29.25;96310.16;4938791;29;20205;-80
2022/09/16 10:40:35;;;;;;;21.35;4.32;;;;;;;32.52;29.47;96316.69;4942730;29;20191;-80
2022/09/16 10:43:13;;;;;;;12.65;3.85;;;;;;;32.36;29.15;96318.03;4943190;29;20693;-80
2022/09/16 10:45:50;;;;;;;15.57;3.83;;;;;;;32.44;29.46;96317.75;4922386;29;20210;-79
2022/09/16 10:48:22;;;;;;;16.23;3.92;;;;;;;32.36;29.86;96318.03;4922248;29;20779;-81
2022/09/16 10:51:06;;;;;;;12.77;3.88;;;;;;;32.55;29.13;96321.56;4942521;29;20198;-82
2022/09/16 10:53:44;;;;;;;17.50;4.15;;;;;;;32.64;28.74;96322.91;4923594;29;20198;-80
2022/09/16 10:56:18;;;;;;;16.02;4.07;;;;;;;32.49;29.73;96314.44;4939937;29;20236;-79
2022/09/16 10:58:45;;;;;;;15.45;3.92;;;;;;;32.47;29.24;96309.28;4938961;29;20329;-78
2022/09/16 11:01:36;;;;;;;20.15;4.60;;;;;;;32.57;29.77;96314.94;4923275;29;20880;-80
2022/09/16 11:04:18;;;;;;;13.63;4.05;;;;;;;32.70;29.95;96313.97;4940379;29;20642;-79
2022/09/16 11:06:56;;;;;;;15.10;3.97;;;;;;;32.77;29.58;96306.63;4942061;29;20197;-81
2022/09/16 11:09:42;;;;;;;16.15;4.55;;;;;;;32.86;29.33;96307.97;4939828;29;20198;-79
2022/09/16 11:12:28;;;;;;;18.05;5.30;;;;;;;32.85;29.09;96306.34;4938407;29;20221;-79
2022/09/16 11:15:18;;;;;;;17.25;4.32;;;;;;;32.84;29.58;96299.34;4921927;29;20625;-77
2022/09/16 11:18:12;;;;;;;15.60;4.10;;;;;;;32.63;30.05;96283.72;4937993;29;20197;-79
2022/09/16 11:20:44;;;;;;;16.98;4.97;;;;;;;32.65;30.19;96287.00;4936973;29;20202;-80
2022/09/16 11:23:22;;;;;;;15.55;3.83;;;;;;;32.67;30.33;96287.59;4921829;29;20190;-79
2022/09/16 11:26:22;;;;;;;15.93;3.83;;;;;;;32.57;29.62;96265.84;4923608;29;20289;-82
2022/09/16 11:29:53;;;;;;;16.10;5.18;;;;;;;32.70;30.10;96290.66;4939783;29;20718;-77
2022/09/16 11:32:42;;;;;;;19.17;5.28;;;;;;;32.76;30.15;96280.88;4940557;29;20289;-79
2022/09/16 11:35:31;;;;;;;14.07;3.55;;;;;;;32.68;30.28;96271.28;4938910;29;20732;-79
2022/09/16 11:38:10;;;;;;;14.57;3.72;;;;;;;32.67;29.91;96269.63;4940571;29;20297;-78
2022/09/16 11:40:54;;;;;;;14.55;4.15;;;;;;;32.58;30.17;96264.81;4943086;29;20204;-78
2022/09/16 11:43:36;;;;;;;16.25;4.57;;;;;;;32.78;30.44;96268.06;4940107;29;20270;-77
2022/09/16 11:46:17;;;;;;;16.52;4.07;;;;;;;32.75;30.32;96265.81;4937791;29;20196;-79
2022/09/16 11:49:02;;;;;;;15.60;3.88;;;;;;;32.88;30.50;96273.69;4940883;29;20227;-77
2022/09/16 11:51:45;;;;;;;9.52;3.70;;;;;;;32.79;30.74;96256.25;4944321;29;20226;-80
2022/09/16 11:54:35;;;;;;;13.05;3.92;;;;;;;32.68;31.04;96257.06;4928029;29;20202;-78
2022/09/16 11:57:09;;;;;;;21.10;4.57;;;;;;;32.55;31.39;96238.44;4947447;29;20193;-79
2022/09/16 11:59:43;;;;;;;17.13;3.97;;;;;;;32.59;31.74;96253.03;4929971;29;20205;-78
2022/09/16 12:02:25;;;;;;;17.27;3.70;;;;;;;32.60;31.26;96246.63;4945858;29;20285;-79
2022/09/16 12:05:18;;;;;;;12.82;3.65;;;;;;;32.55;31.41;96241.13;4927358;29;20194;-79
2022/09/16 12:08:21;;;;;;;9.10;3.70;;;;;;;32.55;31.21;96236.59;4942089;29;20190;-79